PAL604 VVNB-RPLL
Flight info
| Callsign | PAL604 |
|---|---|
| Flight time | N/A |
| Altitude | 37000 |
| Route | PHUT2A PHUTA W3 CBI DBA AKOTA W3 LUBAN LUBA1D |
| Aircraft | B77W/M-V/N |
Departure
| Time | 2026-04-28 05:07 |
|---|---|
| Airport | Noi Bai International Airport (VVNB) |
Arrival
| Time | N/A |
|---|---|
| Airport | Ninoy Aquino International Airport (RPLL) |
| Time | Latitude | Longitude | Altitude | Speed | Heading |
|---|---|---|---|---|---|
| 2026-04-28 04:34 | 21.21851 | 105.79548 | 58 ft | 0 kts | 215° |
| 2026-04-28 04:58 | 21.21856 | 105.79551 | 58 ft | 2 kts | 214° |
| 2026-04-28 04:58 | 21.21869 | 105.79562 | 50 ft | 2 kts | 218° |
| 2026-04-28 04:58 | 21.21882 | 105.79573 | 55 ft | 2 kts | 221° |
| 2026-04-28 04:58 | 21.21894 | 105.79585 | 50 ft | 2 kts | 226° |
| 2026-04-28 04:59 | 21.21904 | 105.79599 | 50 ft | 2 kts | 234° |
| 2026-04-28 04:59 | 21.21913 | 105.79614 | 50 ft | 2 kts | 251° |
| 2026-04-28 04:59 | 21.21916 | 105.79632 | 50 ft | 2 kts | 275° |
| 2026-04-28 04:59 | 21.21913 | 105.79646 | 50 ft | 1 kts | 286° |
| 2026-04-28 05:00 | 21.21912 | 105.79649 | 50 ft | 0 kts | 286° |
| 2026-04-28 05:01 | 21.21914 | 105.79641 | 52 ft | 3 kts | 286° |
| 2026-04-28 05:01 | 21.21923 | 105.79605 | 50 ft | 7 kts | 286° |
| 2026-04-28 05:01 | 21.21941 | 105.79566 | 52 ft | 2 kts | 316° |
| 2026-04-28 05:02 | 21.21969 | 105.79558 | 51 ft | 7 kts | 348° |
| 2026-04-28 05:02 | 21.22024 | 105.79540 | 55 ft | 6 kts | 321° |
| 2026-04-28 05:02 | 21.22050 | 105.79485 | 52 ft | 12 kts | 288° |
| 2026-04-28 05:02 | 21.22081 | 105.79377 | 51 ft | 18 kts | 287° |
| 2026-04-28 05:03 | 21.22119 | 105.79247 | 56 ft | 18 kts | 287° |
| 2026-04-28 05:03 | 21.22155 | 105.79121 | 53 ft | 17 kts | 287° |
| 2026-04-28 05:03 | 21.22189 | 105.79000 | 57 ft | 16 kts | 287° |
| 2026-04-28 05:03 | 21.22222 | 105.78889 | 56 ft | 15 kts | 287° |
| 2026-04-28 05:04 | 21.22252 | 105.78784 | 53 ft | 14 kts | 287° |
| 2026-04-28 05:04 | 21.22282 | 105.78685 | 52 ft | 14 kts | 288° |
| 2026-04-28 05:04 | 21.22325 | 105.78618 | 52 ft | 7 kts | 333° |
| 2026-04-28 05:04 | 21.22368 | 105.78618 | 55 ft | 6 kts | 11° |
| 2026-04-28 05:05 | 21.22406 | 105.78630 | 57 ft | 6 kts | 19° |
| 2026-04-28 05:05 | 21.22443 | 105.78656 | 57 ft | 5 kts | 52° |
| 2026-04-28 05:05 | 21.22449 | 105.78694 | 52 ft | 5 kts | 94° |
| 2026-04-28 05:05 | 21.22444 | 105.78723 | 58 ft | 3 kts | 101° |
| 2026-04-28 05:06 | 21.22442 | 105.78727 | 58 ft | 1 kts | 105° |
| 2026-04-28 05:06 | 21.22416 | 105.78823 | 55 ft | 37 kts | 107° |
| 2026-04-28 05:06 | 21.22262 | 105.79351 | 55 ft | 112 kts | 107° |
| 2026-04-28 05:06 | 21.21964 | 105.80395 | 51 ft | 179 kts | 106° |
| 2026-04-28 05:07 | 21.21551 | 105.81878 | 240 ft | 228 kts | 108° |
| 2026-04-28 05:07 | 21.21052 | 105.83524 | 1128 ft | 234 kts | 110° |
| 2026-04-28 05:07 | 21.20538 | 105.85234 | 2076 ft | 251 kts | 110° |
| 2026-04-28 05:07 | 21.20016 | 105.86993 | 2017 ft | 251 kts | 108° |
| 2026-04-28 05:08 | 21.19582 | 105.88739 | 2199 ft | 235 kts | 108° |
| 2026-04-28 05:08 | 21.19081 | 105.90376 | 1929 ft | 230 kts | 109° |
| 2026-04-28 05:08 | 21.18512 | 105.92088 | 2183 ft | 244 kts | 113° |
| 2026-04-28 05:08 | 21.17894 | 105.93855 | 2533 ft | 254 kts | 113° |
| 2026-04-28 05:09 | 21.17297 | 105.95633 | 2924 ft | 259 kts | 111° |
| 2026-04-28 05:09 | 21.16652 | 105.97402 | 3381 ft | 248 kts | 119° |
| 2026-04-28 05:09 | 21.15737 | 105.98993 | 3959 ft | 265 kts | 126° |
| 2026-04-28 05:09 | 21.14677 | 106.00659 | 4468 ft | 272 kts | 127° |
| 2026-04-28 05:10 | 21.13634 | 106.02336 | 5161 ft | 268 kts | 126° |
| 2026-04-28 05:10 | 21.12600 | 106.04054 | 5759 ft | 277 kts | 124° |
| 2026-04-28 05:10 | 21.11569 | 106.05809 | 6752 ft | 280 kts | 124° |
| 2026-04-28 05:10 | 21.10511 | 106.07622 | 7651 ft | 291 kts | 124° |
| 2026-04-28 05:11 | 21.09511 | 106.09513 | 8691 ft | 294 kts | 117° |
| 2026-04-28 05:11 | 21.08634 | 106.11517 | 9660 ft | 300 kts | 116° |
| 2026-04-28 05:11 | 21.07744 | 106.13547 | 10388 ft | 313 kts | 117° |
| 2026-04-28 05:11 | 21.06750 | 106.15724 | 10829 ft | 338 kts | 118° |
| 2026-04-28 05:12 | 21.05694 | 106.18041 | 11568 ft | 351 kts | 117° |
| 2026-04-28 05:12 | 21.04613 | 106.20439 | 12448 ft | 362 kts | 117° |
| 2026-04-28 05:12 | 21.03511 | 106.22873 | 13398 ft | 371 kts | 117° |
| 2026-04-28 05:12 | 21.02366 | 106.25394 | 14269 ft | 380 kts | 118° |
| 2026-04-28 05:13 | 21.01198 | 106.27966 | 15141 ft | 388 kts | 117° |
| 2026-04-28 05:13 | 21.00023 | 106.30557 | 16030 ft | 395 kts | 117° |
| 2026-04-28 05:13 | 20.98808 | 106.33228 | 16944 ft | 402 kts | 117° |
| 2026-04-28 05:13 | 20.97569 | 106.35956 | 17882 ft | 408 kts | 117° |
| 2026-04-28 05:14 | 20.96320 | 106.38704 | 18726 ft | 412 kts | 117° |
| 2026-04-28 05:14 | 20.95060 | 106.41473 | 19565 ft | 416 kts | 118° |
| 2026-04-28 05:14 | 20.93790 | 106.44228 | 20418 ft | 419 kts | 118° |
| 2026-04-28 05:14 | 20.92546 | 106.47072 | 21292 ft | 423 kts | 113° |
| 2026-04-28 05:15 | 20.91481 | 106.50019 | 22228 ft | 424 kts | 113° |
| 2026-04-28 05:15 | 20.90384 | 106.52946 | 23160 ft | 424 kts | 114° |
| 2026-04-28 05:15 | 20.89280 | 106.55865 | 23992 ft | 423 kts | 114° |
| 2026-04-28 05:15 | 20.88176 | 106.58808 | 24537 ft | 430 kts | 114° |
| 2026-04-28 05:16 | 20.87055 | 106.61786 | 25128 ft | 436 kts | 115° |
| 2026-04-28 05:16 | 20.85922 | 106.64794 | 25831 ft | 434 kts | 115° |
| 2026-04-28 05:16 | 20.84794 | 106.67792 | 26449 ft | 440 kts | 115° |
| 2026-04-28 05:17 | 20.82470 | 106.73952 | 27583 ft | 446 kts | 115° |
| 2026-04-28 05:17 | 20.81294 | 106.77055 | 27927 ft | 459 kts | 115° |
| 2026-04-28 05:17 | 20.80081 | 106.80258 | 28292 ft | 465 kts | 115° |
| 2026-04-28 05:17 | 20.78886 | 106.83440 | 29319 ft | 457 kts | 116° |
| 2026-04-28 05:18 | 20.77666 | 106.86640 | 29458 ft | 473 kts | 116° |
| 2026-04-28 05:18 | 20.76416 | 106.89943 | 29785 ft | 480 kts | 115° |
| 2026-04-28 05:18 | 20.75167 | 106.93254 | 30320 ft | 485 kts | 116° |
| 2026-04-28 05:18 | 20.73910 | 106.96559 | 30916 ft | 481 kts | 116° |
| 2026-04-28 05:19 | 20.72665 | 106.99846 | 31818 ft | 474 kts | 116° |
| 2026-04-28 05:19 | 20.71400 | 107.03159 | 31927 ft | 488 kts | 116° |
| 2026-04-28 05:19 | 20.70122 | 107.06535 | 32447 ft | 486 kts | 116° |
| 2026-04-28 05:19 | 20.68885 | 107.09798 | 33445 ft | 475 kts | 116° |
| 2026-04-28 05:20 | 20.67624 | 107.13092 | 33751 ft | 485 kts | 117° |
| 2026-04-28 05:20 | 20.66335 | 107.16475 | 33816 ft | 495 kts | 116° |
| 2026-04-28 05:20 | 20.65047 | 107.19874 | 34456 ft | 492 kts | 116° |
| 2026-04-28 05:20 | 20.63753 | 107.23254 | 34576 ft | 501 kts | 116° |
| 2026-04-28 05:21 | 20.62449 | 107.26683 | 35205 ft | 497 kts | 117° |
| 2026-04-28 05:21 | 20.61125 | 107.30138 | 35307 ft | 507 kts | 116° |
| 2026-04-28 05:21 | 20.59801 | 107.33615 | 35948 ft | 503 kts | 117° |
| 2026-04-28 05:21 | 20.58460 | 107.37108 | 36037 ft | 512 kts | 117° |
| 2026-04-28 05:22 | 20.57120 | 107.40623 | 36660 ft | 508 kts | 117° |
| 2026-04-28 05:22 | 20.55786 | 107.44097 | 36812 ft | 517 kts | 117° |
| 2026-04-28 05:22 | 20.53484 | 107.50104 | 36931 ft | 534 kts | 116° |
| 2026-04-28 05:23 | 20.52062 | 107.53813 | 36960 ft | 546 kts | 116° |
| 2026-04-28 05:23 | 20.50605 | 107.57606 | 36970 ft | 558 kts | 116° |
| 2026-04-28 05:23 | 20.47633 | 107.65344 | 36926 ft | 565 kts | 116° |
| 2026-04-28 05:24 | 20.44643 | 107.73110 | 36915 ft | 565 kts | 116° |
| 2026-04-28 05:24 | 20.41673 | 107.80813 | 36924 ft | 566 kts | 116° |
| 2026-04-28 05:25 | 20.38673 | 107.88581 | 36931 ft | 566 kts | 116° |
| 2026-04-28 05:25 | 20.35669 | 107.96349 | 36936 ft | 567 kts | 116° |
| 2026-04-28 05:26 | 20.32655 | 108.04129 | 36942 ft | 567 kts | 116° |
| 2026-04-28 05:26 | 20.29656 | 108.11862 | 36941 ft | 568 kts | 116° |
| 2026-04-28 05:27 | 20.26631 | 108.19648 | 36942 ft | 568 kts | 116° |
| 2026-04-28 05:27 | 20.23595 | 108.27450 | 36953 ft | 569 kts | 116° |
| 2026-04-28 05:28 | 20.20562 | 108.35232 | 36942 ft | 569 kts | 116° |
| 2026-04-28 05:28 | 20.17537 | 108.42985 | 36957 ft | 570 kts | 116° |
| 2026-04-28 05:29 | 20.14485 | 108.50790 | 36955 ft | 570 kts | 116° |
| 2026-04-28 05:29 | 20.11447 | 108.58554 | 36950 ft | 571 kts | 116° |
| 2026-04-28 05:30 | 20.08376 | 108.66384 | 36951 ft | 572 kts | 116° |
| 2026-04-28 05:30 | 20.05306 | 108.74204 | 36949 ft | 573 kts | 116° |
| 2026-04-28 05:31 | 20.02249 | 108.81976 | 36948 ft | 573 kts | 116° |
| 2026-04-28 05:31 | 19.99159 | 108.89824 | 36942 ft | 574 kts | 116° |
| 2026-04-28 05:32 | 19.96085 | 108.97616 | 36948 ft | 574 kts | 116° |
| 2026-04-28 05:32 | 19.92995 | 109.05438 | 36952 ft | 574 kts | 116° |
| 2026-04-28 05:33 | 19.89901 | 109.13258 | 36949 ft | 574 kts | 116° |
| 2026-04-28 05:33 | 19.86797 | 109.21093 | 36947 ft | 574 kts | 116° |
| 2026-04-28 05:34 | 19.83708 | 109.28878 | 36951 ft | 574 kts | 116° |
| 2026-04-28 05:34 | 19.80601 | 109.36696 | 36943 ft | 574 kts | 116° |
| 2026-04-28 05:35 | 19.77493 | 109.44508 | 36935 ft | 574 kts | 116° |
| 2026-04-28 05:35 | 19.74376 | 109.52326 | 36948 ft | 574 kts | 116° |
| 2026-04-28 05:36 | 19.71279 | 109.60087 | 36943 ft | 574 kts | 116° |
| 2026-04-28 05:36 | 19.68155 | 109.67901 | 36943 ft | 574 kts | 116° |
| 2026-04-28 05:37 | 19.65032 | 109.75701 | 36943 ft | 574 kts | 116° |
| 2026-04-28 05:37 | 19.61905 | 109.83501 | 36944 ft | 575 kts | 116° |
| 2026-04-28 05:38 | 19.58772 | 109.91305 | 36937 ft | 575 kts | 116° |
| 2026-04-28 05:38 | 19.55626 | 109.99126 | 36942 ft | 575 kts | 116° |
| 2026-04-28 05:39 | 19.52487 | 110.06924 | 36939 ft | 575 kts | 116° |
| 2026-04-28 05:39 | 19.49361 | 110.14674 | 36940 ft | 575 kts | 116° |
| 2026-04-28 05:40 | 19.46207 | 110.22484 | 36945 ft | 575 kts | 116° |
| 2026-04-28 05:40 | 19.43056 | 110.30277 | 36945 ft | 575 kts | 116° |
| 2026-04-28 05:41 | 19.39897 | 110.38074 | 36946 ft | 575 kts | 116° |
| 2026-04-28 05:41 | 19.36753 | 110.45826 | 36943 ft | 575 kts | 116° |
| 2026-04-28 05:42 | 19.33588 | 110.53618 | 36948 ft | 575 kts | 116° |
| 2026-04-28 05:42 | 19.30424 | 110.61396 | 36954 ft | 574 kts | 116° |
| 2026-04-28 05:43 | 19.27257 | 110.69172 | 36972 ft | 574 kts | 116° |
| 2026-04-28 05:43 | 19.24092 | 110.76931 | 36979 ft | 575 kts | 116° |
| 2026-04-28 05:44 | 19.22506 | 110.80814 | 37161 ft | 575 kts | 116° |
| 2026-04-28 05:44 | 19.20940 | 110.84648 | 37123 ft | 575 kts | 116° |
| 2026-04-28 05:44 | 19.17759 | 110.92422 | 36991 ft | 575 kts | 116° |
| 2026-04-28 05:45 | 19.14575 | 111.00196 | 36968 ft | 575 kts | 116° |
| 2026-04-28 05:45 | 19.11393 | 111.07950 | 36964 ft | 575 kts | 116° |
| 2026-04-28 05:46 | 19.08219 | 111.15678 | 36969 ft | 575 kts | 116° |
| 2026-04-28 05:46 | 19.05031 | 111.23427 | 36973 ft | 575 kts | 116° |
| 2026-04-28 05:47 | 19.01835 | 111.31185 | 36972 ft | 575 kts | 116° |
| 2026-04-28 05:47 | 18.98636 | 111.38940 | 36977 ft | 575 kts | 116° |
| 2026-04-28 05:48 | 18.95438 | 111.46678 | 36974 ft | 575 kts | 116° |
| 2026-04-28 05:48 | 18.92255 | 111.54375 | 36980 ft | 574 kts | 116° |
| 2026-04-28 05:49 | 18.89050 | 111.62110 | 36977 ft | 574 kts | 116° |
| 2026-04-28 05:49 | 18.85845 | 111.69837 | 36980 ft | 574 kts | 116° |
| 2026-04-28 05:50 | 18.82629 | 111.77579 | 36980 ft | 574 kts | 116° |
| 2026-04-28 05:50 | 18.79436 | 111.85255 | 36983 ft | 574 kts | 116° |
| 2026-04-28 05:51 | 18.76216 | 111.92985 | 36985 ft | 574 kts | 116° |
| 2026-04-28 05:51 | 18.72992 | 112.00713 | 36982 ft | 574 kts | 116° |
| 2026-04-28 05:52 | 18.69781 | 112.08402 | 36983 ft | 575 kts | 116° |
| 2026-04-28 05:52 | 18.66550 | 112.16127 | 36987 ft | 575 kts | 116° |
| 2026-04-28 05:53 | 18.63322 | 112.23836 | 36986 ft | 575 kts | 116° |
| 2026-04-28 05:53 | 18.60083 | 112.31558 | 36983 ft | 575 kts | 116° |
| 2026-04-28 05:54 | 18.56847 | 112.39266 | 36984 ft | 574 kts | 116° |
| 2026-04-28 05:54 | 18.53628 | 112.46918 | 36982 ft | 575 kts | 116° |
| 2026-04-28 05:55 | 18.50386 | 112.54619 | 36982 ft | 574 kts | 116° |
| 2026-04-28 05:55 | 18.47142 | 112.62312 | 36982 ft | 574 kts | 116° |
| 2026-04-28 05:56 | 18.43895 | 112.70003 | 36981 ft | 574 kts | 116° |
| 2026-04-28 05:56 | 18.40646 | 112.77687 | 36981 ft | 574 kts | 116° |
| 2026-04-28 05:57 | 18.37413 | 112.85327 | 36989 ft | 573 kts | 116° |
| 2026-04-28 05:57 | 18.34159 | 112.93001 | 36988 ft | 573 kts | 116° |
| 2026-04-28 05:58 | 18.30928 | 113.00616 | 36985 ft | 572 kts | 116° |
| 2026-04-28 05:58 | 18.27677 | 113.08262 | 36983 ft | 572 kts | 116° |
| 2026-04-28 05:59 | 18.24426 | 113.15903 | 36983 ft | 571 kts | 116° |
| 2026-04-28 05:59 | 18.21177 | 113.23527 | 36987 ft | 570 kts | 116° |
| 2026-04-28 06:00 | 18.17940 | 113.31114 | 36986 ft | 570 kts | 116° |
| 2026-04-28 06:00 | 18.14687 | 113.38727 | 36988 ft | 569 kts | 116° |
| 2026-04-28 06:01 | 18.11437 | 113.46327 | 36988 ft | 569 kts | 116° |
| 2026-04-28 06:01 | 18.08206 | 113.53868 | 36988 ft | 568 kts | 116° |
| 2026-04-28 06:02 | 18.04953 | 113.61457 | 36991 ft | 568 kts | 116° |
| 2026-04-28 06:02 | 18.01720 | 113.68982 | 36975 ft | 568 kts | 116° |
| 2026-04-28 06:03 | 17.98467 | 113.76551 | 36993 ft | 568 kts | 116° |
| 2026-04-28 06:03 | 17.95205 | 113.84126 | 36987 ft | 568 kts | 116° |
| 2026-04-28 06:04 | 17.91965 | 113.91643 | 36988 ft | 568 kts | 116° |
| 2026-04-28 06:04 | 17.88696 | 113.99218 | 36995 ft | 568 kts | 116° |
| 2026-04-28 06:05 | 17.85431 | 114.06774 | 36993 ft | 568 kts | 116° |
| 2026-04-28 06:05 | 17.82159 | 114.14336 | 36992 ft | 569 kts | 116° |
| 2026-04-28 06:06 | 17.78907 | 114.21843 | 36999 ft | 569 kts | 116° |
| 2026-04-28 06:06 | 17.75622 | 114.29416 | 36987 ft | 569 kts | 116° |
| 2026-04-28 06:07 | 17.72334 | 114.36986 | 36989 ft | 570 kts | 116° |
| 2026-04-28 06:07 | 17.69064 | 114.44507 | 36996 ft | 570 kts | 116° |
| 2026-04-28 06:08 | 17.65768 | 114.52077 | 36997 ft | 570 kts | 116° |
| 2026-04-28 06:08 | 17.62467 | 114.59650 | 36989 ft | 570 kts | 116° |
| 2026-04-28 06:09 | 17.59721 | 114.65941 | 37000 ft | 570 kts | 116° |
| 2026-04-28 06:09 | 17.56414 | 114.73511 | 36983 ft | 570 kts | 116° |
| 2026-04-28 06:10 | 17.53106 | 114.81071 | 36985 ft | 570 kts | 116° |
| 2026-04-28 06:10 | 17.49819 | 114.88576 | 36989 ft | 570 kts | 116° |
| 2026-04-28 06:11 | 17.46513 | 114.96115 | 36988 ft | 569 kts | 117° |
| 2026-04-28 06:11 | 17.43202 | 115.03657 | 36989 ft | 569 kts | 117° |
| 2026-04-28 06:12 | 17.39892 | 115.11185 | 36990 ft | 569 kts | 117° |
| 2026-04-28 06:12 | 17.36581 | 115.18709 | 36992 ft | 568 kts | 117° |
| 2026-04-28 06:13 | 17.33285 | 115.26188 | 36991 ft | 568 kts | 117° |
| 2026-04-28 06:13 | 17.29974 | 115.33692 | 36989 ft | 568 kts | 117° |
| 2026-04-28 06:14 | 17.26659 | 115.41197 | 36990 ft | 567 kts | 117° |
| 2026-04-28 06:14 | 17.23339 | 115.48705 | 36990 ft | 567 kts | 117° |
| 2026-04-28 06:15 | 17.20039 | 115.56157 | 36985 ft | 567 kts | 117° |
| 2026-04-28 06:15 | 17.16718 | 115.63650 | 36987 ft | 567 kts | 117° |
| 2026-04-28 06:16 | 17.13398 | 115.71129 | 36986 ft | 566 kts | 117° |
| 2026-04-28 06:16 | 17.10079 | 115.78599 | 36986 ft | 566 kts | 117° |
| 2026-04-28 06:17 | 17.06768 | 115.86040 | 36985 ft | 566 kts | 117° |
| 2026-04-28 06:18 | 17.01775 | 115.97245 | 36990 ft | 566 kts | 117° |
| 2026-04-28 06:18 | 16.98469 | 116.04657 | 36989 ft | 566 kts | 117° |
| 2026-04-28 06:19 | 16.95132 | 116.12126 | 36988 ft | 565 kts | 117° |
| 2026-04-28 06:19 | 16.91819 | 116.19534 | 36986 ft | 565 kts | 117° |
| 2026-04-28 06:20 | 16.88487 | 116.26975 | 36982 ft | 565 kts | 117° |
| 2026-04-28 06:20 | 16.85153 | 116.34412 | 36985 ft | 565 kts | 117° |
| 2026-04-28 06:21 | 16.81817 | 116.41845 | 36987 ft | 564 kts | 117° |
| 2026-04-28 06:21 | 16.78484 | 116.49263 | 36985 ft | 564 kts | 117° |
| 2026-04-28 06:22 | 16.75169 | 116.56634 | 36985 ft | 564 kts | 117° |
| 2026-04-28 06:22 | 16.71825 | 116.64058 | 36985 ft | 564 kts | 117° |
| 2026-04-28 06:23 | 16.68483 | 116.71470 | 36984 ft | 564 kts | 117° |
| 2026-04-28 06:23 | 16.65142 | 116.78872 | 36988 ft | 564 kts | 117° |
| 2026-04-28 06:24 | 16.61797 | 116.86276 | 36984 ft | 564 kts | 117° |
| 2026-04-28 06:24 | 16.58467 | 116.93636 | 36983 ft | 563 kts | 117° |
| 2026-04-28 06:25 | 16.55121 | 117.01024 | 36986 ft | 563 kts | 117° |
| 2026-04-28 06:25 | 16.51773 | 117.08409 | 36983 ft | 563 kts | 117° |
| 2026-04-28 06:26 | 16.48423 | 117.15787 | 36984 ft | 562 kts | 117° |
| 2026-04-28 06:26 | 16.44377 | 117.22697 | 37001 ft | 557 kts | 132° |
| 2026-04-28 06:27 | 16.39223 | 117.28597 | 37008 ft | 555 kts | 135° |
| 2026-04-28 06:27 | 16.34000 | 117.34503 | 36984 ft | 554 kts | 135° |
| 2026-04-28 06:28 | 16.28778 | 117.40419 | 36982 ft | 554 kts | 135° |
| 2026-04-28 06:28 | 16.23554 | 117.46325 | 36980 ft | 554 kts | 135° |
| 2026-04-28 06:29 | 16.18334 | 117.52225 | 36980 ft | 554 kts | 135° |
| 2026-04-28 06:29 | 16.13107 | 117.58126 | 36980 ft | 553 kts | 135° |
| 2026-04-28 06:30 | 16.07916 | 117.63982 | 36979 ft | 553 kts | 135° |
| 2026-04-28 06:30 | 16.02696 | 117.69866 | 36978 ft | 553 kts | 135° |
| 2026-04-28 06:31 | 15.97475 | 117.75747 | 36981 ft | 553 kts | 135° |
| 2026-04-28 06:31 | 15.92247 | 117.81629 | 36977 ft | 553 kts | 135° |
| 2026-04-28 06:32 | 15.87041 | 117.87484 | 36981 ft | 553 kts | 135° |
| 2026-04-28 06:32 | 15.81821 | 117.93347 | 36980 ft | 553 kts | 135° |
| 2026-04-28 06:33 | 15.76589 | 117.99221 | 36980 ft | 553 kts | 135° |
| 2026-04-28 06:33 | 15.71391 | 118.05050 | 36977 ft | 553 kts | 135° |
| 2026-04-28 06:34 | 15.66166 | 118.10907 | 36978 ft | 552 kts | 135° |
| 2026-04-28 06:34 | 15.60939 | 118.16760 | 36977 ft | 552 kts | 135° |
| 2026-04-28 06:35 | 15.55754 | 118.22564 | 36950 ft | 537 kts | 135° |
| 2026-04-28 06:35 | 15.50659 | 118.28255 | 36998 ft | 547 kts | 135° |
| 2026-04-28 06:36 | 15.45478 | 118.34047 | 36984 ft | 552 kts | 135° |
| 2026-04-28 06:36 | 15.40243 | 118.39889 | 36972 ft | 552 kts | 135° |
| 2026-04-28 06:37 | 15.35013 | 118.45723 | 36970 ft | 552 kts | 135° |
| 2026-04-28 06:37 | 15.29781 | 118.51554 | 36971 ft | 551 kts | 135° |
| 2026-04-28 06:38 | 15.24579 | 118.57348 | 36971 ft | 551 kts | 135° |
| 2026-04-28 06:38 | 15.19351 | 118.63164 | 36973 ft | 551 kts | 135° |
| 2026-04-28 06:39 | 15.14130 | 118.68969 | 36972 ft | 550 kts | 135° |
| 2026-04-28 06:39 | 15.08925 | 118.74754 | 36952 ft | 540 kts | 135° |
| 2026-04-28 06:39 | 15.06401 | 118.77557 | 36935 ft | 526 kts | 135° |
| 2026-04-28 06:40 | 15.03935 | 118.80292 | 36929 ft | 512 kts | 135° |
| 2026-04-28 06:40 | 15.01567 | 118.82919 | 36937 ft | 501 kts | 135° |
| 2026-04-28 06:40 | 14.99190 | 118.85555 | 36961 ft | 497 kts | 135° |
| 2026-04-28 06:41 | 14.94460 | 118.90799 | 36996 ft | 500 kts | 135° |
| 2026-04-28 06:41 | 14.89683 | 118.96092 | 36995 ft | 506 kts | 135° |
| 2026-04-28 06:42 | 14.84903 | 119.01383 | 36976 ft | 505 kts | 135° |
| 2026-04-28 06:42 | 14.80106 | 119.06690 | 36965 ft | 502 kts | 135° |
| 2026-04-28 06:43 | 14.75341 | 119.11959 | 36970 ft | 501 kts | 135° |
| 2026-04-28 06:43 | 14.70598 | 119.17199 | 36972 ft | 503 kts | 135° |
| 2026-04-28 06:44 | 14.65794 | 119.22502 | 36967 ft | 503 kts | 135° |
| 2026-04-28 06:44 | 14.61027 | 119.27762 | 36962 ft | 502 kts | 135° |
| 2026-04-28 06:45 | 14.56255 | 119.33022 | 36963 ft | 500 kts | 135° |
| 2026-04-28 06:45 | 14.51525 | 119.38234 | 36964 ft | 501 kts | 135° |
| 2026-04-28 06:46 | 14.46743 | 119.43499 | 36965 ft | 502 kts | 135° |
| 2026-04-28 06:46 | 14.41962 | 119.48759 | 36962 ft | 501 kts | 135° |
| 2026-04-28 06:47 | 14.37231 | 119.53961 | 36959 ft | 499 kts | 135° |
| 2026-04-28 06:47 | 14.32476 | 119.59185 | 36958 ft | 495 kts | 135° |
| 2026-04-28 06:47 | 14.30143 | 119.61747 | 36749 ft | 486 kts | 135° |
| 2026-04-28 06:48 | 14.27854 | 119.64262 | 36625 ft | 474 kts | 135° |
| 2026-04-28 06:48 | 14.25621 | 119.66711 | 36518 ft | 463 kts | 135° |
| 2026-04-28 06:48 | 14.23423 | 119.69121 | 36114 ft | 459 kts | 135° |
| 2026-04-28 06:48 | 14.21245 | 119.71511 | 35622 ft | 457 kts | 136° |
| 2026-04-28 06:49 | 14.19085 | 119.73879 | 35105 ft | 457 kts | 135° |
| 2026-04-28 06:49 | 14.16901 | 119.76273 | 34550 ft | 457 kts | 135° |
| 2026-04-28 06:49 | 14.14718 | 119.78664 | 34009 ft | 458 kts | 135° |
| 2026-04-28 06:49 | 14.12537 | 119.81055 | 33416 ft | 459 kts | 135° |
| 2026-04-28 06:50 | 14.10361 | 119.83439 | 33152 ft | 450 kts | 135° |
| 2026-04-28 06:50 | 14.08305 | 119.85690 | 33051 ft | 439 kts | 136° |